Landis, North Carolina
Current Conditions -  °F | °C
As of 12:15 AM on Thursday 23 Oct 2014 (Local Time) from KRUQ Reporting Station
Clear Clear  
Wind Chill: 43°   Ceiling: Unl
Heat Index: 45°   Visibility: 10mi
Dew Point: 39°   Wind: 5mph
Humidity: 78%   Direction: 250°WSW
Pressure: 30.09"   Gusts: NA
Location:  35.55°N, 80.61°W
Report Text: KRUQ 230415Z AUTO 25004KT 10SM CLR 07/04 A3009 RMK AO2 T00740038
Loading
Personal Weather Stations






























Interactive Weather Map
Tropical Storm Tracking
New forecast layout! Learn more

10-Day Weather Forecast

Advertisements
Track Severe Weather on mobile